sensor_id;sensor_type;location;lat;lon;timestamp;P1;durP1;ratioP1;P2;durP2;ratioP2
48268;SDS011;34088;52.232;5.196;2023-07-13T00:02:06;22.40;;;4.60;;
48268;SDS011;34088;52.232;5.196;2023-07-13T00:04:32;26.13;;;4.72;;
48268;SDS011;34088;52.232;5.196;2023-07-13T00:06:58;17.90;;;4.38;;
48268;SDS011;34088;52.232;5.196;2023-07-13T00:09:23;17.73;;;3.95;;
48268;SDS011;34088;52.232;5.196;2023-07-13T00:11:52;21.40;;;4.60;;
48268;SDS011;34088;52.232;5.196;2023-07-13T00:14:19;18.63;;;4.10;;
48268;SDS011;34088;52.232;5.196;2023-07-13T00:16:45;22.70;;;4.50;;
48268;SDS011;34088;52.232;5.196;2023-07-13T00:32:58;16.95;;;3.65;;
48268;SDS011;34088;52.232;5.196;2023-07-13T00:35:26;17.23;;;4.10;;
48268;SDS011;34088;52.232;5.196;2023-07-13T00:37:52;18.90;;;3.95;;
48268;SDS011;34088;52.232;5.196;2023-07-13T00:40:17;19.98;;;3.72;;
48268;SDS011;34088;52.232;5.196;2023-07-13T00:42:43;16.23;;;3.75;;
48268;SDS011;34088;52.232;5.196;2023-07-13T00:47:36;12.25;;;3.55;;
48268;SDS011;34088;52.232;5.196;2023-07-13T00:50:02;20.85;;;4.13;;
48268;SDS011;34088;52.232;5.196;2023-07-13T00:52:30;23.42;;;3.92;;
48268;SDS011;34088;52.232;5.196;2023-07-13T00:54:56;18.92;;;4.53;;
48268;SDS011;34088;52.232;5.196;2023-07-13T00:57:23;15.35;;;4.03;;
48268;SDS011;34088;52.232;5.196;2023-07-13T00:59:51;20.33;;;4.10;;
48268;SDS011;34088;52.232;5.196;2023-07-13T01:02:19;17.00;;;3.70;;
48268;SDS011;34088;52.232;5.196;2023-07-13T01:04:46;18.30;;;4.22;;
48268;SDS011;34088;52.232;5.196;2023-07-13T01:07:12;20.38;;;4.43;;
48268;SDS011;34088;52.232;5.196;2023-07-13T01:09:37;15.75;;;3.58;;
48268;SDS011;34088;52.232;5.196;2023-07-13T01:12:03;17.83;;;3.40;;
48268;SDS011;34088;52.232;5.196;2023-07-13T01:14:28;16.35;;;3.40;;
48268;SDS011;34088;52.232;5.196;2023-07-13T01:16:54;13.98;;;3.53;;
48268;SDS011;34088;52.232;5.196;2023-07-13T01:19:36;14.75;;;3.45;;
48268;SDS011;34088;52.232;5.196;2023-07-13T01:24:40;18.92;;;3.75;;
48268;SDS011;34088;52.232;5.196;2023-07-13T01:27:08;11.90;;;2.92;;
48268;SDS011;34088;52.232;5.196;2023-07-13T01:29:36;15.30;;;3.63;;
48268;SDS011;34088;52.232;5.196;2023-07-13T01:32:09;14.57;;;3.25;;
48268;SDS011;34088;52.232;5.196;2023-07-13T01:34:37;12.80;;;3.28;;
48268;SDS011;34088;52.232;5.196;2023-07-13T01:37:03;17.17;;;3.47;;
48268;SDS011;34088;52.232;5.196;2023-07-13T01:39:29;14.20;;;3.67;;
48268;SDS011;34088;52.232;5.196;2023-07-13T01:41:55;10.02;;;3.20;;
48268;SDS011;34088;52.232;5.196;2023-07-13T01:44:20;12.60;;;3.45;;
48268;SDS011;34088;52.232;5.196;2023-07-13T01:46:45;11.43;;;2.67;;
48268;SDS011;34088;52.232;5.196;2023-07-13T01:49:11;16.75;;;3.38;;
48268;SDS011;34088;52.232;5.196;2023-07-13T01:51:36;13.50;;;2.95;;
48268;SDS011;34088;52.232;5.196;2023-07-13T01:54:01;13.50;;;3.53;;
48268;SDS011;34088;52.232;5.196;2023-07-13T01:56:27;12.85;;;3.58;;
48268;SDS011;34088;52.232;5.196;2023-07-13T01:58:52;15.77;;;3.60;;
48268;SDS011;34088;52.232;5.196;2023-07-13T02:01:18;12.15;;;3.33;;
48268;SDS011;34088;52.232;5.196;2023-07-13T02:03:43;14.50;;;3.60;;
48268;SDS011;34088;52.232;5.196;2023-07-13T02:06:09;15.10;;;3.75;;
48268;SDS011;34088;52.232;5.196;2023-07-13T02:08:34;17.15;;;4.00;;
48268;SDS011;34088;52.232;5.196;2023-07-13T02:11:00;14.98;;;3.28;;
48268;SDS011;34088;52.232;5.196;2023-07-13T02:13:27;19.63;;;3.35;;
48268;SDS011;34088;52.232;5.196;2023-07-13T02:15:52;16.23;;;3.65;;
48268;SDS011;34088;52.232;5.196;2023-07-13T02:18:18;16.15;;;4.00;;
48268;SDS011;34088;52.232;5.196;2023-07-13T02:20:43;20.33;;;4.15;;
48268;SDS011;34088;52.232;5.196;2023-07-13T02:23:09;15.45;;;3.72;;
48268;SDS011;34088;52.232;5.196;2023-07-13T02:25:35;11.25;;;3.33;;
48268;SDS011;34088;52.232;5.196;2023-07-13T02:28:00;15.52;;;3.83;;
48268;SDS011;34088;52.232;5.196;2023-07-13T02:30:26;18.55;;;4.22;;
48268;SDS011;34088;52.232;5.196;2023-07-13T02:32:54;20.23;;;3.88;;
48268;SDS011;34088;52.232;5.196;2023-07-13T02:35:20;19.05;;;4.35;;
48268;SDS011;34088;52.232;5.196;2023-07-13T02:37:45;14.27;;;4.55;;
48268;SDS011;34088;52.232;5.196;2023-07-13T02:40:10;18.92;;;4.07;;
48268;SDS011;34088;52.232;5.196;2023-07-13T02:42:36;15.30;;;4.20;;
48268;SDS011;34088;52.232;5.196;2023-07-13T02:45:01;14.90;;;4.97;;
48268;SDS011;34088;52.232;5.196;2023-07-13T02:47:26;13.15;;;4.05;;
48268;SDS011;34088;52.232;5.196;2023-07-13T02:49:52;14.75;;;3.90;;
48268;SDS011;34088;52.232;5.196;2023-07-13T02:52:17;16.77;;;4.03;;
48268;SDS011;34088;52.232;5.196;2023-07-13T02:54:43;17.55;;;4.32;;
48268;SDS011;34088;52.232;5.196;2023-07-13T02:57:08;19.02;;;4.55;;
48268;SDS011;34088;52.232;5.196;2023-07-13T02:59:34;13.07;;;3.83;;
48268;SDS011;34088;52.232;5.196;2023-07-13T03:02:00;18.13;;;4.28;;
48268;SDS011;34088;52.232;5.196;2023-07-13T03:04:27;14.20;;;3.72;;
48268;SDS011;34088;52.232;5.196;2023-07-13T03:06:52;17.67;;;4.10;;
48268;SDS011;34088;52.232;5.196;2023-07-13T03:09:17;12.77;;;3.22;;
48268;SDS011;34088;52.232;5.196;2023-07-13T03:11:42;13.88;;;3.53;;
48268;SDS011;34088;52.232;5.196;2023-07-13T03:14:08;16.33;;;3.58;;
48268;SDS011;34088;52.232;5.196;2023-07-13T03:16:33;15.88;;;3.30;;
48268;SDS011;34088;52.232;5.196;2023-07-13T03:18:59;14.65;;;3.28;;
48268;SDS011;34088;52.232;5.196;2023-07-13T03:21:24;13.85;;;3.30;;
48268;SDS011;34088;52.232;5.196;2023-07-13T03:23:49;14.50;;;3.10;;
48268;SDS011;34088;52.232;5.196;2023-07-13T03:26:17;12.63;;;2.90;;
48268;SDS011;34088;52.232;5.196;2023-07-13T03:28:44;9.48;;;2.65;;
48268;SDS011;34088;52.232;5.196;2023-07-13T03:31:11;10.30;;;2.70;;
48268;SDS011;34088;52.232;5.196;2023-07-13T03:33:41;11.75;;;2.88;;
48268;SDS011;34088;52.232;5.196;2023-07-13T03:36:07;16.63;;;3.15;;
48268;SDS011;34088;52.232;5.196;2023-07-13T03:38:39;9.18;;;2.58;;
48268;SDS011;34088;52.232;5.196;2023-07-13T03:41:04;11.07;;;2.97;;
48268;SDS011;34088;52.232;5.196;2023-07-13T03:43:29;13.95;;;3.17;;
48268;SDS011;34088;52.232;5.196;2023-07-13T03:45:55;12.48;;;3.13;;
48268;SDS011;34088;52.232;5.196;2023-07-13T03:48:21;12.77;;;3.90;;
48268;SDS011;34088;52.232;5.196;2023-07-13T03:50:47;16.92;;;3.70;;
48268;SDS011;34088;52.232;5.196;2023-07-13T03:53:13;15.48;;;3.53;;
48268;SDS011;34088;52.232;5.196;2023-07-13T03:55:38;13.77;;;3.85;;
48268;SDS011;34088;52.232;5.196;2023-07-13T03:58:23;21.38;;;3.97;;
48268;SDS011;34088;52.232;5.196;2023-07-13T04:01:00;15.73;;;4.20;;
48268;SDS011;34088;52.232;5.196;2023-07-13T04:03:27;15.88;;;4.07;;
48268;SDS011;34088;52.232;5.196;2023-07-13T04:05:54;13.35;;;4.07;;
48268;SDS011;34088;52.232;5.196;2023-07-13T04:08:24;12.98;;;3.88;;
48268;SDS011;34088;52.232;5.196;2023-07-13T04:10:50;16.20;;;4.30;;
48268;SDS011;34088;52.232;5.196;2023-07-13T04:13:15;14.65;;;3.90;;
48268;SDS011;34088;52.232;5.196;2023-07-13T04:15:41;15.80;;;4.28;;
48268;SDS011;34088;52.232;5.196;2023-07-13T04:18:06;15.38;;;3.80;;
48268;SDS011;34088;52.232;5.196;2023-07-13T04:20:31;10.93;;;3.50;;
48268;SDS011;34088;52.232;5.196;2023-07-13T04:22:57;13.40;;;3.60;;
48268;SDS011;34088;52.232;5.196;2023-07-13T04:25:23;13.13;;;3.83;;
48268;SDS011;34088;52.232;5.196;2023-07-13T04:27:49;17.35;;;4.35;;
48268;SDS011;34088;52.232;5.196;2023-07-13T04:30:15;16.73;;;4.05;;
48268;SDS011;34088;52.232;5.196;2023-07-13T04:32:40;11.82;;;3.78;;
48268;SDS011;34088;52.232;5.196;2023-07-13T04:35:05;16.52;;;3.80;;
48268;SDS011;34088;52.232;5.196;2023-07-13T04:37:31;13.82;;;3.90;;
48268;SDS011;34088;52.232;5.196;2023-07-13T04:39:56;17.33;;;3.67;;
48268;SDS011;34088;52.232;5.196;2023-07-13T04:42:22;13.82;;;3.92;;
48268;SDS011;34088;52.232;5.196;2023-07-13T04:44:48;19.70;;;4.35;;
48268;SDS011;34088;52.232;5.196;2023-07-13T04:47:14;21.05;;;4.65;;
48268;SDS011;34088;52.232;5.196;2023-07-13T04:49:39;22.40;;;5.20;;
48268;SDS011;34088;52.232;5.196;2023-07-13T04:52:05;17.15;;;4.70;;
48268;SDS011;34088;52.232;5.196;2023-07-13T04:54:32;17.35;;;4.68;;
48268;SDS011;34088;52.232;5.196;2023-07-13T04:56:58;23.75;;;5.15;;
48268;SDS011;34088;52.232;5.196;2023-07-13T04:59:23;20.55;;;5.05;;
48268;SDS011;34088;52.232;5.196;2023-07-13T05:01:48;27.85;;;7.47;;
48268;SDS011;34088;52.232;5.196;2023-07-13T05:04:13;21.23;;;5.30;;
48268;SDS011;34088;52.232;5.196;2023-07-13T05:06:39;17.67;;;5.55;;
48268;SDS011;34088;52.232;5.196;2023-07-13T05:09:05;24.38;;;6.20;;
48268;SDS011;34088;52.232;5.196;2023-07-13T05:11:30;22.95;;;5.75;;
48268;SDS011;34088;52.232;5.196;2023-07-13T05:13:56;21.88;;;5.60;;
48268;SDS011;34088;52.232;5.196;2023-07-13T05:16:21;26.30;;;6.68;;
48268;SDS011;34088;52.232;5.196;2023-07-13T05:18:47;25.83;;;6.45;;
48268;SDS011;34088;52.232;5.196;2023-07-13T05:21:12;29.40;;;6.47;;
48268;SDS011;34088;52.232;5.196;2023-07-13T05:23:37;20.52;;;6.03;;
48268;SDS011;34088;52.232;5.196;2023-07-13T05:26:04;18.83;;;6.13;;
48268;SDS011;34088;52.232;5.196;2023-07-13T05:28:30;22.77;;;5.70;;
48268;SDS011;34088;52.232;5.196;2023-07-13T05:30:56;23.80;;;5.90;;
48268;SDS011;34088;52.232;5.196;2023-07-13T05:33:22;25.83;;;6.25;;
48268;SDS011;34088;52.232;5.196;2023-07-13T05:35:48;23.35;;;6.00;;
48268;SDS011;34088;52.232;5.196;2023-07-13T05:38:13;25.13;;;5.97;;
48268;SDS011;34088;52.232;5.196;2023-07-13T05:40:38;21.95;;;5.82;;
48268;SDS011;34088;52.232;5.196;2023-07-13T05:43:04;22.45;;;6.47;;
48268;SDS011;34088;52.232;5.196;2023-07-13T05:45:29;26.83;;;5.68;;
48268;SDS011;34088;52.232;5.196;2023-07-13T05:47:54;24.40;;;6.60;;
48268;SDS011;34088;52.232;5.196;2023-07-13T05:50:20;25.23;;;6.50;;
48268;SDS011;34088;52.232;5.196;2023-07-13T05:52:46;21.00;;;6.07;;
48268;SDS011;34088;52.232;5.196;2023-07-13T05:55:11;19.15;;;6.10;;
48268;SDS011;34088;52.232;5.196;2023-07-13T05:57:36;23.10;;;6.38;;
48268;SDS011;34088;52.232;5.196;2023-07-13T06:00:02;19.83;;;6.68;;
48268;SDS011;34088;52.232;5.196;2023-07-13T06:02:28;25.83;;;6.00;;
48268;SDS011;34088;52.232;5.196;2023-07-13T06:04:53;25.38;;;6.13;;
48268;SDS011;34088;52.232;5.196;2023-07-13T06:07:18;25.92;;;6.70;;
48268;SDS011;34088;52.232;5.196;2023-07-13T06:09:44;23.05;;;5.72;;
48268;SDS011;34088;52.232;5.196;2023-07-13T06:12:09;24.15;;;5.88;;
48268;SDS011;34088;52.232;5.196;2023-07-13T06:14:34;20.92;;;6.30;;
48268;SDS011;34088;52.232;5.196;2023-07-13T06:17:00;21.52;;;6.22;;
48268;SDS011;34088;52.232;5.196;2023-07-13T06:19:25;19.52;;;6.18;;
48268;SDS011;34088;52.232;5.196;2023-07-13T06:21:50;23.67;;;6.50;;
48268;SDS011;34088;52.232;5.196;2023-07-13T06:24:16;24.60;;;7.03;;
48268;SDS011;34088;52.232;5.196;2023-07-13T06:26:41;24.83;;;7.20;;
48268;SDS011;34088;52.232;5.196;2023-07-13T06:29:07;21.10;;;6.63;;
48268;SDS011;34088;52.232;5.196;2023-07-13T06:31:32;22.00;;;7.13;;
48268;SDS011;34088;52.232;5.196;2023-07-13T06:33:57;24.67;;;7.80;;
48268;SDS011;34088;52.232;5.196;2023-07-13T06:36:23;21.67;;;6.65;;
48268;SDS011;34088;52.232;5.196;2023-07-13T06:38:48;20.75;;;6.60;;
48268;SDS011;34088;52.232;5.196;2023-07-13T06:41:13;19.55;;;6.88;;
48268;SDS011;34088;52.232;5.196;2023-07-13T06:43:39;19.20;;;6.05;;
48268;SDS011;34088;52.232;5.196;2023-07-13T06:46:04;20.13;;;6.50;;
48268;SDS011;34088;52.232;5.196;2023-07-13T06:48:30;21.08;;;5.78;;
48268;SDS011;34088;52.232;5.196;2023-07-13T06:50:55;20.10;;;5.72;;
48268;SDS011;34088;52.232;5.196;2023-07-13T06:53:21;14.90;;;5.10;;
48268;SDS011;34088;52.232;5.196;2023-07-13T06:55:47;23.08;;;5.65;;
48268;SDS011;34088;52.232;5.196;2023-07-13T06:58:14;20.60;;;6.70;;
48268;SDS011;34088;52.232;5.196;2023-07-13T07:00:40;27.20;;;7.75;;
48268;SDS011;34088;52.232;5.196;2023-07-13T07:03:06;18.88;;;6.90;;
48268;SDS011;34088;52.232;5.196;2023-07-13T07:05:31;27.00;;;7.63;;
48268;SDS011;34088;52.232;5.196;2023-07-13T07:07:57;24.35;;;7.93;;
48268;SDS011;34088;52.232;5.196;2023-07-13T07:10:22;19.35;;;5.32;;
48268;SDS011;34088;52.232;5.196;2023-07-13T07:12:47;13.23;;;4.63;;
48268;SDS011;34088;52.232;5.196;2023-07-13T07:15:13;9.93;;;4.18;;
48268;SDS011;34088;52.232;5.196;2023-07-13T07:17:39;10.90;;;4.57;;
48268;SDS011;34088;52.232;5.196;2023-07-13T07:20:04;10.13;;;3.70;;
48268;SDS011;34088;52.232;5.196;2023-07-13T07:22:31;12.15;;;4.60;;
48268;SDS011;34088;52.232;5.196;2023-07-13T07:24:56;6.85;;;3.35;;
48268;SDS011;34088;52.232;5.196;2023-07-13T07:27:22;10.45;;;3.60;;
48268;SDS011;34088;52.232;5.196;2023-07-13T07:29:48;7.53;;;2.65;;
48268;SDS011;34088;52.232;5.196;2023-07-13T07:32:13;10.32;;;3.30;;
48268;SDS011;34088;52.232;5.196;2023-07-13T07:34:38;6.93;;;2.97;;
48268;SDS011;34088;52.232;5.196;2023-07-13T07:37:04;7.03;;;3.00;;
48268;SDS011;34088;52.232;5.196;2023-07-13T07:39:29;7.13;;;2.85;;
48268;SDS011;34088;52.232;5.196;2023-07-13T07:41:55;6.88;;;3.08;;
48268;SDS011;34088;52.232;5.196;2023-07-13T07:44:20;11.80;;;3.92;;
48268;SDS011;34088;52.232;5.196;2023-07-13T07:46:46;7.38;;;3.10;;
48268;SDS011;34088;52.232;5.196;2023-07-13T07:49:12;7.80;;;3.15;;
48268;SDS011;34088;52.232;5.196;2023-07-13T07:51:37;7.20;;;3.45;;
48268;SDS011;34088;52.232;5.196;2023-07-13T07:54:03;8.15;;;3.50;;
48268;SDS011;34088;52.232;5.196;2023-07-13T07:56:29;11.10;;;4.22;;
48268;SDS011;34088;52.232;5.196;2023-07-13T07:58:55;8.63;;;3.97;;
48268;SDS011;34088;52.232;5.196;2023-07-13T08:01:20;11.60;;;4.40;;
48268;SDS011;34088;52.232;5.196;2023-07-13T08:03:46;12.07;;;5.05;;
48268;SDS011;34088;52.232;5.196;2023-07-13T08:06:11;13.30;;;5.43;;
48268;SDS011;34088;52.232;5.196;2023-07-13T08:08:37;13.98;;;6.00;;
48268;SDS011;34088;52.232;5.196;2023-07-13T08:11:03;10.00;;;5.60;;
48268;SDS011;34088;52.232;5.196;2023-07-13T08:13:33;13.15;;;5.55;;
48268;SDS011;34088;52.232;5.196;2023-07-13T08:15:58;17.83;;;5.95;;
48268;SDS011;34088;52.232;5.196;2023-07-13T08:18:24;14.38;;;6.20;;
48268;SDS011;34088;52.232;5.196;2023-07-13T08:20:49;13.57;;;5.85;;
48268;SDS011;34088;52.232;5.196;2023-07-13T08:23:15;16.73;;;5.60;;
48268;SDS011;34088;52.232;5.196;2023-07-13T08:25:41;14.75;;;5.28;;
48268;SDS011;34088;52.232;5.196;2023-07-13T08:28:07;15.07;;;6.07;;
48268;SDS011;34088;52.232;5.196;2023-07-13T08:30:32;12.63;;;6.90;;
48268;SDS011;34088;52.232;5.196;2023-07-13T08:32:57;16.30;;;6.60;;
48268;SDS011;34088;52.232;5.196;2023-07-13T08:35:23;19.02;;;7.70;;
48268;SDS011;34088;52.232;5.196;2023-07-13T08:37:50;15.63;;;7.65;;
48268;SDS011;34088;52.232;5.196;2023-07-13T08:40:24;12.93;;;5.32;;
48268;SDS011;34088;52.232;5.196;2023-07-13T08:45:24;6.75;;;2.97;;
48268;SDS011;34088;52.232;5.196;2023-07-13T08:51:00;5.72;;;3.00;;
48268;SDS011;34088;52.232;5.196;2023-07-13T08:53:36;8.95;;;4.10;;
48268;SDS011;34088;52.232;5.196;2023-07-13T08:56:07;9.90;;;3.63;;
48268;SDS011;34088;52.232;5.196;2023-07-13T08:58:39;7.15;;;3.40;;
48268;SDS011;34088;52.232;5.196;2023-07-13T09:01:16;7.97;;;3.70;;
48268;SDS011;34088;52.232;5.196;2023-07-13T09:04:07;7.68;;;3.20;;
48268;SDS011;34088;52.232;5.196;2023-07-13T09:12:15;7.43;;;2.78;;
48268;SDS011;34088;52.232;5.196;2023-07-13T09:14:47;6.80;;;3.03;;
48268;SDS011;34088;52.232;5.196;2023-07-13T09:17:18;6.03;;;2.90;;
48268;SDS011;34088;52.232;5.196;2023-07-13T09:20:02;5.60;;;3.25;;
48268;SDS011;34088;52.232;5.196;2023-07-13T09:22:34;7.50;;;3.33;;
48268;SDS011;34088;52.232;5.196;2023-07-13T09:25:23;6.95;;;3.70;;
48268;SDS011;34088;52.232;5.196;2023-07-13T09:27:56;8.32;;;3.47;;
48268;SDS011;34088;52.232;5.196;2023-07-13T09:33:27;7.95;;;3.72;;
48268;SDS011;34088;52.232;5.196;2023-07-13T09:35:55;9.57;;;3.65;;
48268;SDS011;34088;52.232;5.196;2023-07-13T09:38:23;10.10;;;4.00;;
48268;SDS011;34088;52.232;5.196;2023-07-13T09:41:04;9.00;;;3.70;;
48268;SDS011;34088;52.232;5.196;2023-07-13T09:44:00;11.38;;;4.10;;
48268;SDS011;34088;52.232;5.196;2023-07-13T09:46:34;8.18;;;3.90;;
48268;SDS011;34088;52.232;5.196;2023-07-13T09:48:59;9.25;;;4.22;;
48268;SDS011;34088;52.232;5.196;2023-07-13T09:51:24;10.50;;;3.80;;
48268;SDS011;34088;52.232;5.196;2023-07-13T09:53:50;10.13;;;3.90;;
48268;SDS011;34088;52.232;5.196;2023-07-13T09:56:19;8.52;;;4.10;;
48268;SDS011;34088;52.232;5.196;2023-07-13T09:58:45;13.35;;;4.82;;
48268;SDS011;34088;52.232;5.196;2023-07-13T10:01:11;8.02;;;3.90;;
48268;SDS011;34088;52.232;5.196;2023-07-13T10:03:36;12.45;;;4.35;;
48268;SDS011;34088;52.232;5.196;2023-07-13T10:06:14;8.65;;;4.20;;
48268;SDS011;34088;52.232;5.196;2023-07-13T10:08:40;9.27;;;3.55;;
48268;SDS011;34088;52.232;5.196;2023-07-13T10:11:10;8.82;;;3.63;;
48268;SDS011;34088;52.232;5.196;2023-07-13T10:13:42;7.00;;;2.95;;
48268;SDS011;34088;52.232;5.196;2023-07-13T10:16:10;10.32;;;3.25;;
48268;SDS011;34088;52.232;5.196;2023-07-13T10:18:57;9.10;;;3.25;;
48268;SDS011;34088;52.232;5.196;2023-07-13T10:21:35;10.55;;;3.78;;
48268;SDS011;34088;52.232;5.196;2023-07-13T10:24:06;7.07;;;3.03;;
48268;SDS011;34088;52.232;5.196;2023-07-13T10:26:43;8.75;;;3.13;;
48268;SDS011;34088;52.232;5.196;2023-07-13T10:29:29;10.88;;;3.30;;
48268;SDS011;34088;52.232;5.196;2023-07-13T10:32:00;9.60;;;3.03;;
48268;SDS011;34088;52.232;5.196;2023-07-13T10:34:25;9.52;;;3.13;;
48268;SDS011;34088;52.232;5.196;2023-07-13T10:36:51;9.20;;;3.05;;
48268;SDS011;34088;52.232;5.196;2023-07-13T10:39:21;11.10;;;3.38;;
48268;SDS011;34088;52.232;5.196;2023-07-13T10:41:55;8.65;;;3.53;;
48268;SDS011;34088;52.232;5.196;2023-07-13T10:44:26;6.85;;;2.97;;
48268;SDS011;34088;52.232;5.196;2023-07-13T10:47:00;11.68;;;3.50;;
48268;SDS011;34088;52.232;5.196;2023-07-13T10:49:31;8.50;;;3.05;;
48268;SDS011;34088;52.232;5.196;2023-07-13T10:51:58;10.40;;;3.47;;
48268;SDS011;34088;52.232;5.196;2023-07-13T10:54:33;8.93;;;3.53;;
48268;SDS011;34088;52.232;5.196;2023-07-13T10:57:16;8.55;;;3.10;;
48268;SDS011;34088;52.232;5.196;2023-07-13T10:59:49;8.13;;;3.20;;
48268;SDS011;34088;52.232;5.196;2023-07-13T11:02:34;10.88;;;3.42;;
48268;SDS011;34088;52.232;5.196;2023-07-13T11:05:01;10.82;;;3.60;;
48268;SDS011;34088;52.232;5.196;2023-07-13T11:07:55;7.05;;;2.75;;
48268;SDS011;34088;52.232;5.196;2023-07-13T11:14:25;6.18;;;3.17;;
48268;SDS011;34088;52.232;5.196;2023-07-13T11:21:26;9.23;;;2.80;;
48268;SDS011;34088;52.232;5.196;2023-07-13T11:24:02;6.28;;;2.92;;
48268;SDS011;34088;52.232;5.196;2023-07-13T11:31:40;6.50;;;2.97;;
48268;SDS011;34088;52.232;5.196;2023-07-13T11:34:11;8.77;;;2.67;;
48268;SDS011;34088;52.232;5.196;2023-07-13T11:36:39;6.00;;;2.50;;
48268;SDS011;34088;52.232;5.196;2023-07-13T11:39:23;6.93;;;2.92;;
48268;SDS011;34088;52.232;5.196;2023-07-13T11:41:54;5.80;;;2.47;;
48268;SDS011;34088;52.232;5.196;2023-07-13T11:44:22;10.45;;;2.83;;
48268;SDS011;34088;52.232;5.196;2023-07-13T11:46:53;5.45;;;2.42;;
48268;SDS011;34088;52.232;5.196;2023-07-13T11:49:22;6.07;;;2.50;;
48268;SDS011;34088;52.232;5.196;2023-07-13T11:51:49;7.32;;;2.65;;
48268;SDS011;34088;52.232;5.196;2023-07-13T11:56:55;4.72;;;2.25;;
48268;SDS011;34088;52.232;5.196;2023-07-13T11:59:25;5.07;;;2.45;;
48268;SDS011;34088;52.232;5.196;2023-07-13T12:01:52;6.47;;;2.45;;
48268;SDS011;34088;52.232;5.196;2023-07-13T12:04:20;5.70;;;2.55;;
48268;SDS011;34088;52.232;5.196;2023-07-13T12:06:54;7.78;;;2.60;;
48268;SDS011;34088;52.232;5.196;2023-07-13T12:09:20;9.52;;;2.70;;
48268;SDS011;34088;52.232;5.196;2023-07-13T12:11:50;6.70;;;2.47;;
48268;SDS011;34088;52.232;5.196;2023-07-13T12:14:16;6.80;;;2.60;;
48268;SDS011;34088;52.232;5.196;2023-07-13T12:16:43;6.75;;;2.53;;
48268;SDS011;34088;52.232;5.196;2023-07-13T12:19:17;8.82;;;2.65;;
48268;SDS011;34088;52.232;5.196;2023-07-13T12:21:54;8.02;;;2.60;;
48268;SDS011;34088;52.232;5.196;2023-07-13T12:24:22;6.07;;;2.33;;
48268;SDS011;34088;52.232;5.196;2023-07-13T12:26:53;7.05;;;2.88;;
48268;SDS011;34088;52.232;5.196;2023-07-13T12:29:20;10.98;;;2.85;;
48268;SDS011;34088;52.232;5.196;2023-07-13T12:31:48;6.57;;;2.97;;
48268;SDS011;34088;52.232;5.196;2023-07-13T12:34:18;7.82;;;2.70;;
48268;SDS011;34088;52.232;5.196;2023-07-13T12:39:20;5.60;;;2.30;;
48268;SDS011;34088;52.232;5.196;2023-07-13T12:41:48;6.07;;;2.50;;
48268;SDS011;34088;52.232;5.196;2023-07-13T12:44:16;4.82;;;2.40;;
48268;SDS011;34088;52.232;5.196;2023-07-13T12:46:54;5.43;;;2.47;;
48268;SDS011;34088;52.232;5.196;2023-07-13T12:49:29;8.38;;;2.63;;
48268;SDS011;34088;52.232;5.196;2023-07-13T12:51:56;6.22;;;2.80;;
48268;SDS011;34088;52.232;5.196;2023-07-13T12:54:24;6.90;;;2.65;;
48268;SDS011;34088;52.232;5.196;2023-07-13T12:56:49;6.35;;;2.40;;
48268;SDS011;34088;52.232;5.196;2023-07-13T12:59:19;8.18;;;2.85;;
48268;SDS011;34088;52.232;5.196;2023-07-13T13:01:46;6.15;;;2.63;;
48268;SDS011;34088;52.232;5.196;2023-07-13T13:04:14;6.72;;;2.67;;
48268;SDS011;34088;52.232;5.196;2023-07-13T13:06:40;7.85;;;3.03;;
48268;SDS011;34088;52.232;5.196;2023-07-13T13:09:09;11.07;;;3.38;;
48268;SDS011;34088;52.232;5.196;2023-07-13T13:11:38;8.52;;;3.05;;
48268;SDS011;34088;52.232;5.196;2023-07-13T13:14:04;6.95;;;2.88;;
48268;SDS011;34088;52.232;5.196;2023-07-13T13:16:34;8.35;;;3.10;;
48268;SDS011;34088;52.232;5.196;2023-07-13T13:19:15;9.20;;;3.22;;
48268;SDS011;34088;52.232;5.196;2023-07-13T13:21:43;8.07;;;3.38;;
48268;SDS011;34088;52.232;5.196;2023-07-13T13:24:16;9.27;;;3.20;;
48268;SDS011;34088;52.232;5.196;2023-07-13T13:26:45;10.10;;;3.33;;
48268;SDS011;34088;52.232;5.196;2023-07-13T13:29:11;6.70;;;2.80;;
48268;SDS011;34088;52.232;5.196;2023-07-13T13:31:39;5.32;;;3.13;;
48268;SDS011;34088;52.232;5.196;2023-07-13T13:34:06;6.18;;;3.00;;
48268;SDS011;34088;52.232;5.196;2023-07-13T13:36:34;4.95;;;2.70;;
48268;SDS011;34088;52.232;5.196;2023-07-13T13:38:59;7.22;;;2.92;;
48268;SDS011;34088;52.232;5.196;2023-07-13T13:41:26;6.22;;;3.00;;
48268;SDS011;34088;52.232;5.196;2023-07-13T13:43:52;6.95;;;3.50;;
48268;SDS011;34088;52.232;5.196;2023-07-13T13:46:19;8.63;;;3.25;;
48268;SDS011;34088;52.232;5.196;2023-07-13T13:48:49;6.60;;;3.22;;
48268;SDS011;34088;52.232;5.196;2023-07-13T13:51:18;6.85;;;2.90;;
48268;SDS011;34088;52.232;5.196;2023-07-13T13:53:46;7.93;;;3.15;;
48268;SDS011;34088;52.232;5.196;2023-07-13T13:56:12;8.10;;;2.92;;
48268;SDS011;34088;52.232;5.196;2023-07-13T13:58:38;5.88;;;2.80;;
48268;SDS011;34088;52.232;5.196;2023-07-13T14:01:04;8.18;;;2.95;;
48268;SDS011;34088;52.232;5.196;2023-07-13T14:03:33;7.35;;;2.78;;
48268;SDS011;34088;52.232;5.196;2023-07-13T14:05:58;7.72;;;2.90;;
48268;SDS011;34088;52.232;5.196;2023-07-13T14:08:24;5.40;;;2.70;;
48268;SDS011;34088;52.232;5.196;2023-07-13T14:10:50;6.65;;;2.60;;
48268;SDS011;34088;52.232;5.196;2023-07-13T14:13:19;7.20;;;2.78;;
48268;SDS011;34088;52.232;5.196;2023-07-13T14:15:48;7.53;;;2.42;;
48268;SDS011;34088;52.232;5.196;2023-07-13T14:18:14;4.88;;;2.38;;
48268;SDS011;34088;52.232;5.196;2023-07-13T14:20:43;6.82;;;2.50;;
48268;SDS011;34088;52.232;5.196;2023-07-13T14:23:09;6.10;;;2.20;;
48268;SDS011;34088;52.232;5.196;2023-07-13T14:25:34;6.57;;;2.22;;
48268;SDS011;34088;52.232;5.196;2023-07-13T14:28:00;7.05;;;2.40;;
48268;SDS011;34088;52.232;5.196;2023-07-13T14:30:37;5.22;;;2.30;;
48268;SDS011;34088;52.232;5.196;2023-07-13T14:33:04;5.35;;;2.47;;
48268;SDS011;34088;52.232;5.196;2023-07-13T14:35:34;5.90;;;2.40;;
48268;SDS011;34088;52.232;5.196;2023-07-13T14:38:00;5.28;;;2.70;;
48268;SDS011;34088;52.232;5.196;2023-07-13T14:40:29;6.13;;;2.50;;
48268;SDS011;34088;52.232;5.196;2023-07-13T14:42:56;7.45;;;2.80;;
48268;SDS011;34088;52.232;5.196;2023-07-13T14:45:22;7.45;;;2.47;;
48268;SDS011;34088;52.232;5.196;2023-07-13T14:47:47;6.75;;;2.95;;
48268;SDS011;34088;52.232;5.196;2023-07-13T14:50:17;8.27;;;3.00;;
48268;SDS011;34088;52.232;5.196;2023-07-13T14:52:42;5.40;;;2.50;;
48268;SDS011;34088;52.232;5.196;2023-07-13T14:55:13;4.10;;;2.33;;
48268;SDS011;34088;52.232;5.196;2023-07-13T14:57:40;4.38;;;2.30;;
48268;SDS011;34088;52.232;5.196;2023-07-13T15:00:12;5.93;;;2.67;;
48268;SDS011;34088;52.232;5.196;2023-07-13T15:02:38;5.75;;;2.42;;
48268;SDS011;34088;52.232;5.196;2023-07-13T15:05:17;7.40;;;2.38;;
48268;SDS011;34088;52.232;5.196;2023-07-13T15:07:45;5.70;;;1.98;;
48268;SDS011;34088;52.232;5.196;2023-07-13T15:10:21;4.32;;;2.30;;
48268;SDS011;34088;52.232;5.196;2023-07-13T15:12:50;6.35;;;2.30;;
48268;SDS011;34088;52.232;5.196;2023-07-13T15:15:16;6.32;;;2.60;;
48268;SDS011;34088;52.232;5.196;2023-07-13T15:17:43;4.93;;;2.10;;
48268;SDS011;34088;52.232;5.196;2023-07-13T15:20:21;4.78;;;1.98;;
48268;SDS011;34088;52.232;5.196;2023-07-13T15:22:51;6.30;;;2.25;;
48268;SDS011;34088;52.232;5.196;2023-07-13T15:25:17;5.28;;;2.10;;
48268;SDS011;34088;52.232;5.196;2023-07-13T15:27:44;4.90;;;2.17;;
48268;SDS011;34088;52.232;5.196;2023-07-13T15:30:11;4.40;;;1.90;;
48268;SDS011;34088;52.232;5.196;2023-07-13T15:32:37;5.45;;;2.35;;
48268;SDS011;34088;52.232;5.196;2023-07-13T15:35:02;4.80;;;2.25;;
48268;SDS011;34088;52.232;5.196;2023-07-13T15:37:28;5.38;;;2.28;;